HESN

Aswan International Airport

Airport
ICAO code
HESN
IATA Code
ASW
Summary
ICAO Region
AFI
ICAO Territory
Location

Aswan, Aswan

Serving
Aswan
Elevation
662 ft
Coordinates
23° 57' 52" N , 32° 49' 12" E
Metar
HESN 161400Z 15004KT CAVOK 36/M03 Q1009 NOSIG

Runways

Designator Length Width Surface Rops
17/35 3402 45 ASP Yes/Yes

Airport map

Aerial View

SKYbrary Partners:

Safety knowledge contributed by: